Time;durP1;ratioP1;P1;durP2;ratioP2;P2;SDS_P1;SDS_P2;PMS_P1;PMS_P2;Temp;Humidity;BMP_temperature;BMP_pressure;BME280_temperature;BME280_humidity;BME280_pressure;Samples;Min_cycle;Max_cycle;Signal;HPM_P1;HPM_P2
2022/05/14 00:01:45;;;;;;;4.78;3.00;;;11.40;99.90;;;;;;4997538;28;20043;-93
2022/05/14 00:04:11;;;;;;;5.35;2.42;;;11.40;99.90;;;;;;4997357;28;20504;-93
2022/05/14 00:06:38;;;;;;;7.20;3.07;;;11.40;99.90;;;;;;5013058;28;20047;-93
2022/05/14 00:09:12;;;;;;;4.00;2.63;;;11.30;99.90;;;;;;5013800;28;20040;-92
2022/05/14 00:14:27;;;;;;;2.90;2.10;;;11.20;99.90;;;;;;5016473;28;20063;-94
2022/05/14 00:16:54;;;;;;;2.78;2.10;;;11.20;99.90;;;;;;5029875;28;20134;-94
2022/05/14 00:19:24;;;;;;;6.03;2.50;;;11.20;99.90;;;;;;5014422;28;20044;-94
2022/05/14 00:21:50;;;;;;;3.13;2.40;;;11.10;99.90;;;;;;5030461;28;20043;-93
2022/05/14 00:24:18;;;;;;;4.47;2.63;;;11.20;99.90;;;;;;4997241;28;20043;-93
2022/05/14 00:26:44;;;;;;;3.05;2.13;;;11.80;99.90;;;;;;5013868;28;20167;-93
2022/05/14 00:29:13;;;;;;;4.10;2.77;;;11.20;99.90;;;;;;5030003;28;20485;-93
2022/05/14 00:31:43;;;;;;;5.05;2.10;;;10.00;99.90;;;;;;5030196;28;20050;-93
2022/05/14 00:34:11;;;;;;;2.92;2.30;;;11.10;99.90;;;;;;5029408;28;20048;-93
2022/05/14 00:36:37;;;;;;;8.18;3.03;;;10.90;99.90;;;;;;5012397;28;20051;-93
2022/05/14 00:39:06;;;;;;;2.90;2.50;;;11.00;99.90;;;;;;5029482;28;20055;-92
2022/05/14 00:41:38;;;;;;;5.25;3.28;;;10.80;99.90;;;;;;5011943;28;20565;-93
2022/05/14 00:44:04;;;;;;;6.65;2.63;;;9.70;99.90;;;;;;5013048;28;20185;-91
2022/05/14 00:46:51;;;;;;;4.75;3.53;;;10.80;99.90;;;;;;5012256;28;20083;-94
2022/05/14 00:49:30;;;;;;;7.38;2.80;;;10.80;99.90;;;;;;5078182;28;20063;-92
2022/05/14 00:52:17;;;;;;;3.88;2.42;;;10.50;99.90;;;;;;4992969;28;20505;-93
2022/05/14 00:55:00;;;;;;;2.90;2.37;;;10.80;99.90;;;;;;4993138;28;20044;-93
2022/05/14 00:57:33;;;;;;;3.70;2.25;;;10.90;99.90;;;;;;4994212;28;20297;-93
2022/05/14 01:00:04;;;;;;;3.38;2.22;;;10.80;99.90;;;;;;4992616;28;20512;-94
2022/05/14 01:02:33;;;;;;;3.63;2.42;;;10.80;99.90;;;;;;5009370;28;20058;-93
2022/05/14 01:05:06;;;;;;;6.18;3.08;;;10.80;99.90;;;;;;5012206;28;20039;-93
2022/05/14 01:07:39;;;;;;;4.32;2.17;;;11.70;99.90;;;;;;5013002;28;20086;-93
2022/05/14 01:10:09;;;;;;;6.57;2.42;;;10.80;99.90;;;;;;5011742;28;20051;-94
2022/05/14 01:12:46;;;;;;;4.68;3.20;;;10.90;99.90;;;;;;5007657;28;20047;-93
2022/05/14 01:15:23;;;;;;;2.90;2.38;;;10.90;99.90;;;;;;5013221;28;20043;-93
2022/05/14 01:18:02;;;;;;;;;;;;;;;;;;;;;
2022/05/14 01:20:35;;;;;;;4.55;2.85;;;11.00;99.90;;;;;;5028306;28;20079;-93
2022/05/14 01:23:21;;;;;;;6.43;2.55;;;10.80;99.90;;;;;;5019685;28;20738;-93
2022/05/14 01:26:27;;;;;;;6.90;2.70;;;10.80;99.90;;;;;;5012350;28;20047;-93
2022/05/14 01:29:01;;;;;;;6.93;3.10;;;10.90;99.90;;;;;;5012105;28;20161;-93
2022/05/14 01:31:30;;;;;;;6.03;2.30;;;10.80;99.90;;;;;;5009457;28;20055;-95
2022/05/14 01:34:00;;;;;;;5.95;3.10;;;10.90;99.90;;;;;;4993081;28;20047;-92
2022/05/14 01:36:30;;;;;;;6.47;2.83;;;10.80;99.90;;;;;;5085543;28;20040;-95
2022/05/14 01:38:56;;;;;;;4.38;2.72;;;10.90;99.90;;;;;;5012681;28;20044;-93
2022/05/14 01:41:25;;;;;;;7.60;2.80;;;10.90;99.90;;;;;;5028260;28;20051;-93
2022/05/14 01:44:01;;;;;;;;;;;;;;;;;;;;;
2022/05/14 01:46:30;;;;;;;3.75;2.15;;;10.90;99.90;;;;;;5025118;28;20478;-93
2022/05/14 01:48:58;;;;;;;5.63;2.55;;;11.00;99.90;;;;;;5008031;28;20039;-93
2022/05/14 01:51:28;;;;;;;5.97;2.63;;;10.90;99.90;;;;;;5008182;28;20393;-94
2022/05/14 01:53:56;;;;;;;3.00;2.45;;;10.90;99.90;;;;;;4991474;28;20052;-93
2022/05/14 01:56:22;;;;;;;5.05;2.55;;;10.90;99.90;;;;;;5016395;28;20044;-93
2022/05/14 01:58:51;;;;;;;6.87;2.97;;;10.90;99.90;;;;;;5003696;28;20180;-93
2022/05/14 02:01:31;;;;;;;3.20;2.30;;;10.80;99.90;;;;;;5062222;28;20447;-93
2022/05/14 02:04:02;;;;;;;4.30;2.90;;;9.70;99.90;;;;;;5011852;28;20100;-92
2022/05/14 02:06:32;;;;;;;5.57;2.63;;;10.80;99.90;;;;;;5008198;28;20044;-92
2022/05/14 02:09:01;;;;;;;4.18;2.28;;;10.60;99.90;;;;;;5011474;28;20070;-92
2022/05/14 02:11:27;;;;;;;5.32;2.42;;;10.70;99.90;;;;;;5011985;28;20083;-93
2022/05/14 02:13:59;;;;;;;3.38;2.40;;;10.50;99.90;;;;;;4994714;28;20050;-93
2022/05/14 02:16:25;;;;;;;7.93;2.53;;;10.60;99.90;;;;;;5028060;28;20040;-94
2022/05/14 02:18:51;;;;;;;9.55;2.75;;;10.60;99.90;;;;;;5056151;28;20047;-93
2022/05/14 02:21:20;;;;;;;7.53;3.57;;;10.60;99.90;;;;;;5027478;28;20512;-93
2022/05/14 02:23:52;;;;;;;2.92;2.65;;;10.50;99.90;;;;;;5011070;28;20085;-93
2022/05/14 02:26:20;;;;;;;5.95;3.03;;;10.40;99.90;;;;;;5011917;28;20553;-94
2022/05/14 02:28:49;;;;;;;4.40;2.53;;;10.40;99.90;;;;;;5008098;28;20048;-94
2022/05/14 02:31:16;;;;;;;4.32;3.05;;;10.40;99.90;;;;;;4989289;28;20535;-93
2022/05/14 02:33:43;;;;;;;5.43;3.05;;;10.30;99.90;;;;;;5011572;28;20129;-93
2022/05/14 02:36:12;;;;;;;4.22;2.65;;;10.20;99.90;;;;;;5012053;28;20047;-94
2022/05/14 02:38:40;;;;;;;4.00;3.20;;;10.20;99.90;;;;;;5010777;28;20052;-92
2022/05/14 02:41:12;;;;;;;6.95;3.10;;;10.20;99.90;;;;;;5011327;28;20055;-93
2022/05/14 02:43:38;;;;;;;8.02;3.58;;;10.10;99.90;;;;;;5011046;28;20120;-94
2022/05/14 02:46:05;;;;;;;4.67;3.37;;;10.10;99.90;;;;;;5026544;28;20051;-93
2022/05/14 02:48:33;;;;;;;;;;;10.10;99.90;;;;;;5011329;28;20293;-93
2022/05/14 02:51:01;;;;;;;6.47;3.08;;;9.00;99.90;;;;;;5027119;28;19923;-94
2022/05/14 02:53:36;;;;;;;6.25;2.85;;;10.10;99.90;;;;;;5010952;28;20064;-93
2022/05/14 02:56:07;;;;;;;4.05;3.17;;;10.10;99.90;;;;;;5026798;28;20515;-93
2022/05/14 03:01:24;;;;;;;5.38;3.25;;;10.00;99.90;;;;;;5027048;28;20040;-93
2022/05/14 03:03:52;;;;;;;4.72;3.65;;;10.00;99.90;;;;;;5010290;28;20089;-93
2022/05/14 03:06:27;;;;;;;11.98;3.88;;;10.00;99.90;;;;;;5010874;28;20090;-92
2022/05/14 03:08:56;;;;;;;3.75;3.30;;;9.90;99.90;;;;;;5012139;28;20040;-92
2022/05/14 03:11:22;;;;;;;9.00;3.83;;;9.90;99.90;;;;;;5027404;28;20095;-93
2022/05/14 03:13:53;;;;;;;10.17;4.40;;;9.90;99.90;;;;;;5026795;28;20047;-93
2022/05/14 03:16:20;;;;;;;4.78;3.47;;;9.80;99.90;;;;;;4995177;28;20100;-92
2022/05/14 03:18:49;;;;;;;5.70;3.15;;;9.80;99.90;;;;;;4994363;28;20047;-93
2022/05/14 03:21:17;;;;;;;4.85;3.65;;;9.80;99.90;;;;;;5010627;28;20044;-92
2022/05/14 03:23:55;;;;;;;;;;;;;;;;;;;;;
2022/05/14 03:26:36;;;;;;;6.50;2.97;;;9.70;99.90;;;;;;5027405;28;20478;-92
2022/05/14 03:29:09;;;;;;;8.70;3.65;;;9.30;99.90;;;;;;5009872;28;20252;-92
2022/05/14 03:31:36;;;;;;;7.85;3.50;;;9.80;99.90;;;;;;5011134;28;20405;-93
2022/05/14 03:34:03;;;;;;;;;;;9.60;99.90;;;;;;5026798;28;20070;-93
2022/05/14 03:36:29;;;;;;;4.85;3.53;;;9.70;99.90;;;;;;5009985;28;19927;-93
2022/05/14 03:38:57;;;;;;;7.38;4.00;;;9.80;99.90;;;;;;5011370;28;20051;-93
2022/05/14 03:41:23;;;;;;;10.75;4.13;;;9.80;99.90;;;;;;5009988;28;20069;-93
2022/05/14 03:43:57;;;;;;;6.95;5.07;;;9.70;99.90;;;;;;5009587;28;20040;-92
2022/05/14 03:46:23;;;;;;;7.43;3.92;;;9.70;99.90;;;;;;5010229;28;20100;-93
2022/05/14 03:48:52;;;;;;;11.47;3.67;;;9.50;99.90;;;;;;5010596;28;20051;-93
2022/05/14 03:51:20;;;;;;;9.57;3.22;;;9.60;99.90;;;;;;4994065;28;20043;-93
2022/05/14 03:53:47;;;;;;;5.18;3.80;;;9.50;99.90;;;;;;5009283;28;20113;-95
2022/05/14 03:56:20;;;;;;;7.18;3.25;;;9.60;99.90;;;;;;5010512;28;20051;-93
2022/05/14 03:58:48;;;;;;;8.68;3.45;;;9.50;99.90;;;;;;5010477;28;20474;-94
2022/05/14 04:01:18;;;;;;;9.65;3.80;;;8.80;99.90;;;;;;4994912;28;20046;-93
2022/05/14 04:03:47;;;;;;;8.40;4.00;;;9.60;99.90;;;;;;5026799;28;20055;-93
2022/05/14 04:06:12;;;;;;;8.50;3.47;;;9.60;99.90;;;;;;5027474;28;20040;-93
2022/05/14 04:08:49;;;;;;;;;;;;;;;;;;;;;
2022/05/14 04:11:33;;;;;;;;;;;;;;;;;;;;;
2022/05/14 04:13:59;;;;;;;8.00;3.95;;;9.60;99.90;;;;;;5026034;28;20044;-91
2022/05/14 04:16:28;;;;;;;7.35;4.25;;;9.90;99.90;;;;;;5027998;28;20040;-93
2022/05/14 04:18:57;;;;;;;13.07;4.75;;;9.80;99.90;;;;;;4996759;28;20073;-92
2022/05/14 04:21:24;;;;;;;12.27;5.78;;;9.70;99.90;;;;;;5019122;28;20118;-92
2022/05/14 04:23:58;;;;;;;6.65;4.50;;;9.90;99.90;;;;;;4998239;28;20052;-93
2022/05/14 04:26:24;;;;;;;10.32;4.32;;;10.90;99.90;;;;;;5031000;28;20044;-91
2022/05/14 04:28:50;;;;;;;7.40;5.13;;;10.00;99.90;;;;;;5014654;28;20073;-93
2022/05/14 04:31:16;;;;;;;13.07;5.43;;;10.10;99.90;;;;;;5031003;28;20286;-92
2022/05/14 04:33:58;;;;;;;8.10;4.87;;;10.20;99.90;;;;;;4997325;28;20492;-92
2022/05/14 04:36:24;;;;;;;8.77;4.68;;;10.10;99.90;;;;;;5013458;28;20142;-94
2022/05/14 04:38:53;;;;;;;8.77;5.00;;;10.30;99.90;;;;;;4996511;28;20078;-93
2022/05/14 04:41:23;;;;;;;12.98;4.82;;;10.40;99.90;;;;;;5029236;28;20040;-93
2022/05/14 04:43:54;;;;;;;14.57;5.95;;;10.30;99.90;;;;;;5029494;28;20485;-93
2022/05/14 04:46:30;;;;;;;7.93;4.97;;;10.50;99.90;;;;;;5029455;28;20039;-93
2022/05/14 04:48:59;;;;;;;13.07;5.03;;;10.30;99.90;;;;;;4998315;28;20437;-93
2022/05/14 04:51:27;;;;;;;12.47;5.60;;;10.30;99.90;;;;;;5013438;28;20044;-93
2022/05/14 04:53:55;;;;;;;7.95;4.60;;;10.30;99.90;;;;;;5013028;28;20490;-95
2022/05/14 04:56:21;;;;;;;8.65;5.10;;;10.40;99.90;;;;;;5012856;28;20047;-93
2022/05/14 04:58:50;;;;;;;7.75;4.65;;;10.30;99.90;;;;;;5029313;28;20189;-92
2022/05/14 05:01:20;;;;;;;11.43;4.93;;;10.30;99.90;;;;;;5012115;28;20057;-92
2022/05/14 05:03:49;;;;;;;10.20;5.15;;;10.40;99.90;;;;;;5012818;28;20532;-94
2022/05/14 05:06:18;;;;;;;11.57;4.93;;;10.70;99.90;;;;;;5011936;28;20039;-93
2022/05/14 05:08:52;;;;;;;10.45;6.32;;;11.00;99.90;;;;;;5029076;28;20093;-92
2022/05/14 05:11:19;;;;;;;13.55;6.25;;;11.40;99.90;;;;;;5015948;28;20039;-93
2022/05/14 05:13:44;;;;;;;;;;;11.70;99.90;;;;;;5012653;28;20044;-93
2022/05/14 05:16:10;;;;;;;9.73;4.72;;;11.80;99.90;;;;;;5013042;28;20406;-93
2022/05/14 05:18:36;;;;;;;12.52;4.97;;;12.00;99.90;;;;;;5012253;28;20040;-93
2022/05/14 05:21:12;;;;;;;9.52;4.90;;;12.40;99.90;;;;;;4996966;28;20130;-93
2022/05/14 05:23:38;;;;;;;7.72;5.22;;;12.50;99.90;;;;;;5015600;28;20047;-93
2022/05/14 05:26:04;;;;;;;7.80;4.87;;;12.90;99.90;;;;;;5028378;28;20117;-93
2022/05/14 05:28:32;;;;;;;11.27;5.73;;;13.00;99.90;;;;;;5011992;28;20138;-93
2022/05/14 05:31:14;;;;;;;;;;;;;;;;;;;;;
2022/05/14 05:33:43;;;;;;;10.00;7.05;;;13.10;99.90;;;;;;5014009;28;20036;-92
2022/05/14 05:36:11;;;;;;;16.80;6.05;;;13.00;99.90;;;;;;5012033;28;20046;-93
2022/05/14 05:38:38;;;;;;;9.73;5.38;;;12.10;99.90;;;;;;4996663;28;20053;-93
2022/05/14 05:41:06;;;;;;;9.23;5.95;;;12.30;99.90;;;;;;5027963;28;20400;-92
2022/05/14 05:43:34;;;;;;;7.30;4.55;;;13.50;99.90;;;;;;5011875;28;20043;-94
2022/05/14 05:46:05;;;;;;;11.35;5.72;;;13.30;99.90;;;;;;5012168;28;20134;-94
2022/05/14 05:48:33;;;;;;;9.35;5.82;;;12.50;99.90;;;;;;5011949;28;20043;-93
2022/05/14 05:50:59;;;;;;;13.88;5.50;;;12.90;99.90;;;;;;5011796;28;20126;-95
2022/05/14 05:59:23;;;;;;;12.27;4.88;;;12.90;99.90;;;;;;4994149;28;20384;-93
2022/05/14 06:01:51;;;;;;;5.95;5.13;;;12.80;99.90;;;;;;5063377;28;20050;-93
2022/05/14 06:04:22;;;;;;;8.15;4.97;;;12.70;99.90;;;;;;5079785;28;20103;-93
2022/05/14 06:06:50;;;;;;;14.30;6.43;;;12.70;99.90;;;;;;5030330;28;20043;-93
2022/05/14 06:09:35;;;;;;;10.15;4.28;;;12.50;99.90;;;;;;5011183;28;20068;-93
2022/05/14 06:12:14;;;;;;;8.52;5.45;;;12.50;99.90;;;;;;5011835;28;20048;-93
2022/05/14 06:14:47;;;;;;;13.68;6.35;;;12.50;99.90;;;;;;5011785;28;20434;-93
2022/05/14 06:17:20;;;;;;;9.38;4.93;;;12.50;99.90;;;;;;5011969;28;20525;-94
2022/05/14 06:20:27;;;;;;;11.18;6.25;;;12.90;99.90;;;;;;5092555;28;20070;-93
2022/05/14 06:23:08;;;;;;;12.70;5.68;;;13.40;99.90;;;;;;5044388;28;20049;-93
2022/05/14 06:28:32;;;;;;;12.68;5.47;;;14.00;99.90;;;;;;5019039;28;20324;-93
2022/05/14 06:31:03;;;;;;;13.13;5.65;;;14.20;99.90;;;;;;5010264;28;20479;-93
2022/05/14 06:33:32;;;;;;;9.77;5.10;;;14.50;99.90;;;;;;5008760;28;20038;-91
2022/05/14 06:36:19;;;;;;;12.93;6.65;;;14.80;99.90;;;;;;4994182;28;20492;-91
2022/05/14 06:42:28;;;;;;;11.80;5.30;;;15.60;99.90;;;;;;5016644;28;20159;-92
2022/05/14 06:45:10;;;;;;;;;;;;;;;;;;;;;
2022/05/14 06:47:44;;;;;;;7.53;4.60;;;16.00;99.90;;;;;;4990818;28;20133;-92
2022/05/14 06:50:13;;;;;;;11.73;3.50;;;16.30;99.90;;;;;;4996115;28;20102;-93
2022/05/14 06:52:47;;;;;;;13.85;3.97;;;16.50;99.90;;;;;;5008817;28;20069;-91
2022/05/14 06:55:16;;;;;;;7.68;4.75;;;16.70;99.90;;;;;;4993410;28;20098;-93
2022/05/14 06:57:42;;;;;;;7.03;4.32;;;16.80;99.90;;;;;;5005719;28;20095;-92
2022/05/14 07:00:18;;;;;;;10.15;3.75;;;17.00;99.90;;;;;;4977608;28;20042;-94
2022/05/14 07:02:46;;;;;;;4.45;3.42;;;17.30;99.90;;;;;;4989922;28;20054;-91
2022/05/14 07:07:59;;;;;;;11.48;4.07;;;17.40;99.90;;;;;;5013151;28;20488;-96
2022/05/14 07:10:25;;;;;;;7.03;3.38;;;17.50;99.90;;;;;;5010765;28;20057;-91
2022/05/14 07:12:51;;;;;;;8.93;3.50;;;17.60;99.90;;;;;;4993547;28;20526;-91
2022/05/14 07:15:18;;;;;;;16.88;4.22;;;17.60;99.90;;;;;;4988265;28;20054;-89
2022/05/14 07:17:44;;;;;;;8.27;3.63;;;17.50;99.90;;;;;;4958046;28;20046;-89
2022/05/14 07:20:10;;;;;;;4.25;3.17;;;17.30;99.90;;;;;;5005083;28;20094;-88
2022/05/14 07:22:36;;;;;;;5.15;2.83;;;17.20;99.90;;;;;;4956567;28;20085;-88
2022/05/14 07:25:03;;;;;;;11.65;3.95;;;17.10;99.90;;;;;;4973902;28;20081;-90
2022/05/14 07:27:29;;;;;;;8.35;3.67;;;17.20;99.90;;;;;;4978183;28;20058;-89
2022/05/14 07:29:55;;;;;;;8.00;3.33;;;17.40;99.90;;;;;;5001877;28;20094;-93
2022/05/14 07:32:20;;;;;;;8.32;3.22;;;17.70;99.90;;;;;;5008781;28;20045;-93
2022/05/14 07:34:49;;;;;;;5.25;3.35;;;17.90;99.90;;;;;;5004880;28;20046;-90
2022/05/14 07:37:24;;;;;;;3.97;2.88;;;18.00;99.90;;;;;;4988449;28;20062;-90
2022/05/14 07:40:12;;;;;;;8.52;3.50;;;18.30;99.90;;;;;;5003260;28;20057;-91
2022/05/14 07:42:43;;;;;;;11.85;3.28;;;18.70;99.90;;;;;;5007899;28;20061;-92
2022/05/14 07:45:14;;;;;;;5.53;3.03;;;18.90;99.90;;;;;;4989714;28;20050;-90
2022/05/14 07:47:41;;;;;;;4.32;2.45;;;19.10;99.90;;;;;;5007585;28;20060;-90
2022/05/14 07:50:07;;;;;;;8.30;2.65;;;19.20;99.90;;;;;;5007063;28;20042;-90
2022/05/14 07:52:34;;;;;;;4.95;3.58;;;19.20;99.90;;;;;;4990786;28;20045;-91
2022/05/14 07:55:00;;;;;;;9.73;3.70;;;19.20;99.90;;;;;;5003871;28;20054;-93
2022/05/14 07:57:25;;;;;;;8.90;3.38;;;19.30;99.90;;;;;;5011635;28;20107;-92
2022/05/14 07:59:51;;;;;;;10.63;2.70;;;19.40;99.90;;;;;;4995167;28;20453;-92
2022/05/14 08:02:23;;;;;;;5.97;4.28;;;19.40;99.90;;;;;;4995102;28;20049;-90
2022/05/14 08:04:49;;;;;;;7.47;3.15;;;19.60;99.90;;;;;;5012222;28;20050;-90
2022/05/14 08:07:15;;;;;;;6.40;3.55;;;19.60;99.90;;;;;;5011407;28;20050;-88
2022/05/14 08:09:40;;;;;;;;;;;19.70;99.90;;;;;;4994947;28;20061;-89
2022/05/14 08:12:06;;;;;;;6.28;3.00;;;19.80;99.90;;;;;;4994884;28;20434;-86
2022/05/14 08:14:33;;;;;;;6.25;2.72;;;19.90;99.90;;;;;;4997794;28;20061;-89
2022/05/14 08:16:59;;;;;;;9.65;3.33;;;20.10;99.90;;;;;;4994899;28;20384;-94
2022/05/14 08:19:25;;;;;;;;;;;20.20;99.90;;;;;;4994732;28;20112;-92
2022/05/14 08:24:34;;;;;;;6.63;3.28;;;20.60;99.90;;;;;;5001807;28;20054;-92
2022/05/14 08:27:02;;;;;;;;;;;20.70;99.90;;;;;;4993813;28;20440;-91
2022/05/14 08:29:28;;;;;;;6.43;3.45;;;20.80;97.30;;;;;;4992684;28;19925;-91
2022/05/14 08:31:54;;;;;;;;;;;20.90;99.90;;;;;;4991617;28;20038;-90
2022/05/14 08:34:19;;;;;;;6.45;3.17;;;21.10;96.80;;;;;;5009700;28;20025;-90
2022/05/14 08:36:45;;;;;;;7.25;3.65;;;21.10;99.40;;;;;;4992889;28;20160;-93
2022/05/14 08:39:11;;;;;;;;;;;20.90;97.80;;;;;;4993113;28;20049;-91
2022/05/14 08:41:41;;;;;;;4.53;3.47;;;20.90;94.50;;;;;;5020587;28;20008;-91
2022/05/14 08:44:12;;;;;;;8.50;3.40;;;21.00;97.00;;;;;;4992339;28;20045;-92
2022/05/14 08:46:40;;;;;;;7.43;3.42;;;21.20;96.50;;;;;;5007222;28;20054;-91
2022/05/14 08:49:44;;;;;;;11.43;3.33;;;21.00;95.70;;;;;;5005080;28;20463;-93
2022/05/14 08:52:16;;;;;;;10.27;3.40;;;20.50;93.70;;;;;;5011930;28;20042;-91
2022/05/14 08:54:42;;;;;;;5.80;3.33;;;19.40;95.00;;;;;;4990587;28;20065;-95
2022/05/14 08:57:46;;;;;;;7.65;4.60;;;20.00;95.20;;;;;;4977289;28;20042;-93
2022/05/14 09:00:13;;;;;;;5.93;3.50;;;20.10;94.80;;;;;;5007719;28;20067;-95
2022/05/14 09:02:46;;;;;;;7.55;2.92;;;20.30;95.20;;;;;;5008741;28;20057;-94
2022/05/14 09:05:17;;;;;;;7.35;3.47;;;20.50;94.70;;;;;;5007091;28;20114;-94
2022/05/14 09:07:43;;;;;;;4.30;2.83;;;20.70;94.70;;;;;;4991098;28;20050;-94
2022/05/14 09:10:19;;;;;;;5.78;2.40;;;20.90;94.30;;;;;;5009101;28;20128;-92
2022/05/14 09:12:57;;;;;;;3.63;2.47;;;21.20;92.50;;;;;;5008229;28;20038;-92
2022/05/14 09:15:26;;;;;;;6.68;3.65;;;21.30;92.30;;;;;;4990647;28;20050;-93
2022/05/14 09:18:13;;;;;;;7.47;2.60;;;21.30;92.60;;;;;;4992365;28;20058;-94
2022/05/14 09:20:48;;;;;;;5.83;3.07;;;21.00;91.20;;;;;;4992560;28;20053;-92
2022/05/14 09:23:26;;;;;;;7.15;3.88;;;20.50;91.70;;;;;;5009044;28;20377;-92
2022/05/14 09:25:52;;;;;;;7.70;3.20;;;20.50;91.90;;;;;;4991371;28;20056;-93
2022/05/14 09:28:41;;;;;;;5.95;3.50;;;20.70;92.30;;;;;;5008948;28;20507;-94
2022/05/14 09:31:08;;;;;;;6.43;3.08;;;20.90;91.00;;;;;;5009687;28;20459;-94
2022/05/14 09:33:41;;;;;;;6.72;2.67;;;20.90;91.60;;;;;;5008533;28;20073;-92
2022/05/14 09:36:15;;;;;;;7.18;2.97;;;20.70;91.10;;;;;;5024770;28;20069;-93
2022/05/14 09:38:42;;;;;;;7.95;3.40;;;20.40;90.70;;;;;;5008900;28;20412;-90
2022/05/14 09:41:21;;;;;;;10.45;3.65;;;20.10;91.30;;;;;;5008630;28;20045;-94
2022/05/14 09:43:53;;;;;;;8.77;3.65;;;20.30;91.60;;;;;;5012548;28;20098;-95
2022/05/14 09:46:32;;;;;;;7.50;2.97;;;20.50;91.40;;;;;;5001326;28;20050;-95
2022/05/14 09:49:06;;;;;;;12.63;3.70;;;20.70;92.00;;;;;;4999742;28;20046;-94
2022/05/14 09:51:37;;;;;;;5.95;3.10;;;20.90;91.00;;;;;;4994313;28;20057;-93
2022/05/14 09:54:21;;;;;;;7.68;3.45;;;20.80;90.50;;;;;;5007736;28;20054;-96
2022/05/14 09:57:08;;;;;;;4.85;2.65;;;20.60;88.60;;;;;;4992358;28;20433;-93
2022/05/14 09:59:57;;;;;;;6.57;2.93;;;20.40;90.00;;;;;;4982749;28;20046;-89
2022/05/14 10:02:41;;;;;;;8.40;3.00;;;20.40;89.20;;;;;;4979978;28;20411;-96
2022/05/14 10:05:41;;;;;;;4.72;3.20;;;20.60;89.00;;;;;;4979558;28;20050;-92
2022/05/14 10:08:21;;;;;;;10.05;4.20;;;20.80;89.00;;;;;;4997827;28;20084;-89
2022/05/14 10:11:12;;;;;;;8.63;3.00;;;21.00;90.10;;;;;;5007899;28;20038;-89
2022/05/14 10:13:51;;;;;;;8.25;3.78;;;21.20;90.10;;;;;;4967344;28;20053;-91
2022/05/14 10:16:39;;;;;;;4.60;2.95;;;21.30;88.70;;;;;;5008276;28;20514;-90
2022/05/14 10:19:23;;;;;;;4.18;2.70;;;21.50;86.30;;;;;;5008056;28;20042;-91
2022/05/14 10:22:19;;;;;;;7.38;3.53;;;21.10;87.50;;;;;;4991067;28;20049;-91
2022/05/14 10:27:55;;;;;;;8.67;2.53;;;20.90;88.00;;;;;;5002085;28;20058;-91
2022/05/14 10:30:29;;;;;;;4.78;3.25;;;20.90;89.00;;;;;;4989348;28;20069;-91
2022/05/14 10:33:12;;;;;;;7.38;2.60;;;21.10;88.10;;;;;;4998946;28;20046;-90
2022/05/14 10:36:07;;;;;;;8.63;3.30;;;21.10;84.40;;;;;;4992404;28;20044;-91
2022/05/14 10:38:53;;;;;;;8.35;3.05;;;21.10;85.70;;;;;;4995327;28;20073;-94
2022/05/14 10:41:41;;;;;;;8.10;2.80;;;21.60;84.60;;;;;;4991649;28;20065;-91
2022/05/14 10:44:22;;;;;;;9.10;2.95;;;21.80;83.80;;;;;;5008149;28;20079;-93
2022/05/14 10:46:48;;;;;;;6.45;3.20;;;22.00;84.10;;;;;;5007617;28;20121;-92
2022/05/14 10:49:25;;;;;;;5.13;3.03;;;22.20;83.00;;;;;;5006484;28;20444;-93
2022/05/14 10:51:52;;;;;;;6.30;2.78;;;22.00;79.90;;;;;;4991405;28;20437;-92
2022/05/14 10:54:23;;;;;;;12.32;3.30;;;21.90;81.30;;;;;;4990588;28;20065;-92
2022/05/14 10:56:59;;;;;;;8.65;2.55;;;22.10;81.20;;;;;;5007141;28;20128;-92
2022/05/14 10:59:56;;;;;;;4.72;2.55;;;22.30;80.70;;;;;;5006689;28;20050;-93
2022/05/14 11:02:29;;;;;;;3.13;2.38;;;22.20;78.10;;;;;;5006693;28;20083;-92
2022/05/14 11:04:58;;;;;;;6.93;2.83;;;22.10;79.20;;;;;;5021418;28;20411;-92
2022/05/14 11:07:37;;;;;;;7.88;2.70;;;21.90;79.30;;;;;;4991609;28;20133;-92
2022/05/14 11:10:18;;;;;;;5.72;3.20;;;21.70;78.70;;;;;;4991084;28;20217;-92
2022/05/14 11:12:46;;;;;;;6.90;2.83;;;21.40;78.40;;;;;;5007248;28;20487;-90
2022/05/14 11:15:28;;;;;;;3.70;3.05;;;22.00;79.90;;;;;;4976939;28;20045;-92
2022/05/14 11:18:08;;;;;;;9.52;2.97;;;21.20;79.80;;;;;;5006791;28;20042;-91
2022/05/14 11:20:35;;;;;;;4.70;4.30;;;21.50;80.10;;;;;;5007495;28;20041;-91
2022/05/14 11:23:19;;;;;;;9.30;3.72;;;21.80;80.30;;;;;;5006906;28;20056;-91
2022/05/14 11:25:45;;;;;;;8.05;2.47;;;22.20;77.40;;;;;;5005669;28;20043;-90
2022/05/14 11:28:28;;;;;;;9.77;3.58;;;22.20;78.20;;;;;;4994161;28;20495;-93
2022/05/14 11:31:16;;;;;;;8.20;3.03;;;22.50;77.20;;;;;;4999723;28;20111;-92
2022/05/14 11:33:43;;;;;;;8.63;3.15;;;22.70;74.20;;;;;;5024659;28;20081;-91
2022/05/14 11:36:12;;;;;;;5.57;3.38;;;22.90;76.10;;;;;;5009786;28;20056;-91
2022/05/14 11:38:41;;;;;;;6.40;2.83;;;23.10;75.30;;;;;;4992210;28;20429;-92
2022/05/14 11:41:10;;;;;;;4.95;3.03;;;23.30;74.80;;;;;;5010076;28;20050;-90
2022/05/14 11:43:43;;;;;;;7.40;3.50;;;23.50;74.40;;;;;;5006795;28;20492;-89
2022/05/14 11:46:09;;;;;;;5.50;3.10;;;23.70;73.40;;;;;;5025743;28;20571;-87
2022/05/14 11:48:40;;;;;;;;;;;23.60;72.10;;;;;;4992145;28;20129;-87
2022/05/14 11:51:35;;;;;;;5.65;2.55;;;23.50;68.50;;;;;;5009645;28;20347;-87
2022/05/14 11:54:26;;;;;;;5.15;2.80;;;23.70;70.60;;;;;;5001631;28;20159;-87
2022/05/14 11:56:57;;;;;;;5.40;2.50;;;23.90;69.90;;;;;;4985461;28;20077;-91
2022/05/14 11:59:56;;;;;;;7.40;3.38;;;24.30;69.70;;;;;;4995661;28;20487;-92
2022/05/14 12:02:24;;;;;;;8.15;3.10;;;24.30;68.30;;;;;;4994353;28;20071;-91
2022/05/14 12:04:55;;;;;;;4.47;2.83;;;24.20;69.30;;;;;;4995417;28;20049;-89
2022/05/14 12:07:33;;;;;;;7.93;3.10;;;23.90;68.10;;;;;;5011395;28;20510;-90
2022/05/14 12:10:18;;;;;;;13.07;2.72;;;23.50;66.80;;;;;;5010338;28;20054;-91
2022/05/14 12:12:58;;;;;;;8.15;3.42;;;23.10;68.30;;;;;;5011236;28;20038;-94
2022/05/14 12:15:24;;;;;;;6.25;3.33;;;22.30;68.50;;;;;;5017372;28;20057;-91
2022/05/14 12:17:56;;;;;;;11.10;3.58;;;22.60;70.00;;;;;;5012481;28;20087;-94
2022/05/14 12:20:28;;;;;;;7.85;2.55;;;22.40;69.50;;;;;;5344823;22;20166;-94
2022/05/14 12:23:30;;;;;;;6.45;3.67;;;22.20;70.20;;;;;;5050400;28;20085;-92
2022/05/14 12:25:56;;;;;;;9.35;3.08;;;21.90;69.40;;;;;;5038081;28;20124;-94
2022/05/14 12:28:32;;;;;;;7.30;2.60;;;21.90;70.70;;;;;;5046655;28;20531;-92
2022/05/14 12:34:03;;;;;;;9.13;2.90;;;21.70;71.00;;;;;;5072899;28;20058;-92
2022/05/14 12:36:51;;;;;;;4.47;2.65;;;21.80;70.40;;;;;;5052997;28;20037;-92
2022/05/14 12:39:22;;;;;;;4.90;3.63;;;21.90;71.60;;;;;;5036845;28;20341;-92
2022/05/14 12:41:52;;;;;;;6.75;3.58;;;21.90;70.60;;;;;;5037436;28;20060;-92
2022/05/14 12:44:31;;;;;;;6.55;3.92;;;21.80;70.90;;;;;;5053109;28;20049;-93
2022/05/14 12:46:59;;;;;;;8.90;3.55;;;21.70;70.60;;;;;;5053609;28;20454;-91
2022/05/14 12:49:29;;;;;;;9.23;4.45;;;21.80;72.00;;;;;;5036822;28;20044;-92
2022/05/14 12:51:59;;;;;;;13.40;3.10;;;22.20;71.30;;;;;;5053553;28;20094;-93
2022/05/14 12:54:31;;;;;;;5.32;3.70;;;22.50;71.60;;;;;;5037027;28;20080;-93
2022/05/14 12:57:04;;;;;;;9.02;3.88;;;22.70;70.20;;;;;;5053940;28;20128;-94
2022/05/14 12:59:30;;;;;;;6.72;2.72;;;22.60;69.20;;;;;;5037436;28;20515;-93
2022/05/14 13:02:24;;;;;;;7.60;3.42;;;22.60;70.30;;;;;;5028565;28;20041;-91
2022/05/14 13:05:03;;;;;;;9.15;2.85;;;22.40;69.30;;;;;;5026994;28;20107;-93
2022/05/14 13:07:31;;;;;;;5.68;3.05;;;22.30;69.90;;;;;;5038534;28;20110;-89
2022/05/14 13:09:57;;;;;;;8.93;3.95;;;22.30;70.00;;;;;;5042752;28;20044;-93
2022/05/14 13:12:27;;;;;;;8.98;3.45;;;22.20;69.90;;;;;;5018775;28;20129;-91
2022/05/14 13:14:56;;;;;;;10.32;3.65;;;22.20;70.00;;;;;;5037826;28;20107;-93
2022/05/14 13:17:35;;;;;;;13.05;3.67;;;22.10;70.20;;;;;;5039317;28;20068;-90
2022/05/14 13:20:04;;;;;;;6.55;3.33;;;22.00;69.60;;;;;;5045152;28;20057;-88
2022/05/14 13:22:42;;;;;;;7.00;3.15;;;21.90;70.00;;;;;;5044412;28;20171;-88
2022/05/14 13:25:32;;;;;;;10.57;3.25;;;21.70;69.90;;;;;;5042343;28;20140;-90
2022/05/14 13:28:34;;;;;;;9.55;3.63;;;21.60;69.80;;;;;;5046596;28;20450;-89
2022/05/14 13:31:04;;;;;;;5.63;2.60;;;21.50;69.10;;;;;;5015857;28;20053;-91
2022/05/14 13:33:35;;;;;;;5.93;2.60;;;21.40;70.30;;;;;;5043931;28;20476;-90
2022/05/14 13:39:09;;;;;;;9.45;3.75;;;21.40;70.40;;;;;;5073105;28;20079;-90
2022/05/14 13:41:43;;;;;;;6.07;2.85;;;21.50;70.10;;;;;;5027125;28;20064;-91
2022/05/14 13:44:21;;;;;;;5.60;2.95;;;21.50;70.20;;;;;;5041675;28;20041;-92
2022/05/14 13:46:59;;;;;;;11.20;3.60;;;21.50;70.90;;;;;;5049674;28;20106;-92
2022/05/14 13:49:32;;;;;;;9.55;4.43;;;21.50;71.00;;;;;;5033418;28;20049;-92
2022/05/14 13:52:00;;;;;;;9.75;3.55;;;21.50;71.00;;;;;;5037566;28;20036;-89
2022/05/14 13:54:41;;;;;;;5.82;2.55;;;21.50;70.60;;;;;;5035924;28;20042;-91
2022/05/14 13:57:24;;;;;;;5.43;3.60;;;21.50;70.40;;;;;;5038833;28;20045;-89